The Hangar Logo

METARs in Plain English
Latest METAR information for EGVN - BRIZE NORTON

EGVN 020850Z 08007KT 9999 FEW010 BKN045 16/12 Q1024 BLU NOSIG

In plain english is....

This is a METAR report for EGVN - BRIZE NORTON .
The report was made 16 minutes ago, at 08:50 UTC.
The wind was blowing at a speed of 7 knots (8.1 miles per hour, 3.6 metres per second) from the East (080°).
The visibility was greater than 6.2 miles (greater than 10 kilometres).
There were a few clouds at a height of 1000 feet (305 metres) and broken clouds at a height of 4500 feet (1372 metres).
The temperature was 16°C (61°F), a dew point of 12°C (54°F) and a relative humidity of 77.1%.
The altimeter setting (airfield QNH) was 1,024 hPa (30.24 inHg).
Other remarks BLU NOSIG.

UK Mainland

Ireland

Channel Islands

France

Other



Enter
Tel: 07092 887559 - Fax: 07092 183262

Terms of Use | Privacy Statement
Content copyright © 1999-2012 TheHangar.co.uk. All rights reserved.
Please send your questions, comments, or bug reports to the Webmaster.